createdAt,value
2023-02-17T00:01:43.332Z,979.88
2023-02-17T00:07:19.607Z,980.02
2023-02-17T00:12:51.330Z,979.94
2023-02-17T00:18:22.897Z,979.57
2023-02-17T00:23:54.606Z,979.66
2023-02-17T00:29:26.634Z,979.49
2023-02-17T00:34:58.243Z,979.45
2023-02-17T00:40:29.944Z,979.25
2023-02-17T00:46:01.991Z,979.15
2023-02-17T00:51:33.470Z,979.57
2023-02-17T00:57:05.119Z,979.7
2023-02-17T01:02:36.765Z,979.87
2023-02-17T01:08:12.903Z,979.42
2023-02-17T01:13:44.855Z,979.39
2023-02-17T01:19:16.382Z,979.22
2023-02-17T01:24:48.134Z,979.03
2023-02-17T01:30:20.018Z,979.21
2023-02-17T01:35:51.530Z,979.18
2023-02-17T01:41:23.215Z,979.16
2023-02-17T01:46:55.362Z,978.82
2023-02-17T01:52:26.754Z,978.62
2023-02-17T01:57:58.626Z,978.93
2023-02-17T02:03:30.437Z,979.07
2023-02-17T02:09:06.360Z,978.81
2023-02-17T02:14:38.943Z,978.95
2023-02-17T02:20:10.549Z,979.05
2023-02-17T02:25:41.438Z,978.97
2023-02-17T02:31:13.695Z,978.79
2023-02-17T02:36:45.085Z,978.77
2023-02-17T02:42:17.077Z,978.68
2023-02-17T02:47:48.576Z,978.57
2023-02-17T02:53:20.083Z,978.81
2023-02-17T02:58:52.017Z,978.28
2023-02-17T03:04:23.923Z,978.51
2023-02-17T03:10:01.738Z,978.48
2023-02-17T03:15:33.616Z,978.24
2023-02-17T03:21:05.273Z,978.22
2023-02-17T03:26:37.081Z,978.47
2023-02-17T03:32:08.877Z,978.58
2023-02-17T03:37:40.363Z,978.76
2023-02-17T03:43:12.231Z,978.66
2023-02-17T03:48:43.839Z,978.37
2023-02-17T03:54:15.533Z,978.34
2023-02-17T03:59:47.588Z,978.69
2023-02-17T04:05:18.903Z,979.11
2023-02-17T04:10:57.577Z,978.9
2023-02-17T04:16:28.912Z,978.58
2023-02-17T04:22:00.579Z,979.22
2023-02-17T04:27:32.779Z,978.62
2023-02-17T04:33:04.265Z,979.01
2023-02-17T04:38:35.733Z,978.55
2023-02-17T04:44:07.599Z,978.51
2023-02-17T04:49:39.375Z,978.46
2023-02-17T04:55:10.902Z,978.44
2023-02-17T05:00:42.650Z,978.58
2023-02-17T05:06:14.658Z,978.65
2023-02-17T05:11:50.636Z,979.16
2023-02-17T05:17:22.284Z,979.19
2023-02-17T05:22:53.772Z,978.87
2023-02-17T05:28:25.905Z,979.02
2023-02-17T05:33:57.492Z,979.14
2023-02-17T05:39:29.173Z,978.77
2023-02-17T05:45:01.314Z,979.4
2023-02-17T05:50:32.679Z,979.68
2023-02-17T05:56:05.278Z,979.86
2023-02-17T06:01:38.220Z,979.6
2023-02-17T06:07:08.104Z,979.45
2023-02-17T06:12:45.999Z,979.82
2023-02-17T06:18:17.756Z,980.21
2023-02-17T06:23:49.554Z,980.01
2023-02-17T06:29:21.083Z,980.21
2023-02-17T06:34:52.823Z,980.32
2023-02-17T06:40:24.717Z,980.61
2023-02-17T06:45:56.758Z,980.75
2023-02-17T06:51:28.236Z,980.53
2023-02-17T06:56:59.862Z,980.88
2023-02-17T07:02:31.773Z,981.09
2023-02-17T07:08:03.234Z,980.99
2023-02-17T07:13:42.081Z,981.35
2023-02-17T07:19:13.086Z,981.2
2023-02-17T07:24:44.778Z,981.19
2023-02-17T07:30:16.589Z,981.68
2023-02-17T07:35:48.256Z,981.53
2023-02-17T07:41:19.969Z,981.4
2023-02-17T07:46:52.006Z,981.6
2023-02-17T07:52:23.474Z,981.88
2023-02-17T07:57:55.170Z,982.05
2023-02-17T08:03:26.739Z,982.15
2023-02-17T08:08:58.891Z,982.41
2023-02-17T08:14:36.738Z,982.69
2023-02-17T08:20:09.939Z,982.61
2023-02-17T08:25:40.067Z,982.82
2023-02-17T08:31:12.359Z,982.79
2023-02-17T08:36:43.769Z,983.03
2023-02-17T08:42:15.522Z,983.19
2023-02-17T08:47:47.170Z,982.76
2023-02-17T08:53:18.953Z,982.8
2023-02-17T08:58:50.570Z,982.83
2023-02-17T09:04:22.883Z,982.87
2023-02-17T09:09:54.192Z,982.73
2023-02-17T09:15:30.670Z,982.75
2023-02-17T09:21:01.962Z,983.05
2023-02-17T09:26:33.674Z,983.7
2023-02-17T09:32:05.720Z,984.01
2023-02-17T09:37:37.014Z,984.56
2023-02-17T09:43:08.800Z,984.9
2023-02-17T09:48:40.658Z,985.02
2023-02-17T09:54:12.344Z,986.3
2023-02-17T09:59:44.193Z,986.64
2023-02-17T10:05:15.791Z,986.06
2023-02-17T10:10:47.157Z,985.66
2023-02-17T10:16:23.717Z,986.12
2023-02-17T10:21:55.142Z,986.79
2023-02-17T10:27:27.172Z,987.01
2023-02-17T10:32:58.935Z,986.66
2023-02-17T10:38:30.462Z,987.22
2023-02-17T10:44:02.023Z,986.92
2023-02-17T10:49:34.487Z,986.89
2023-02-17T10:55:23.863Z,986.83
2023-02-17T11:00:37.448Z,986.99
2023-02-17T11:06:09.982Z,987.11
2023-02-17T11:11:41.493Z,986.99
2023-02-17T11:17:19.073Z,986.81
2023-02-17T11:22:50.791Z,986.57
2023-02-17T11:28:24.933Z,986.84
2023-02-17T11:33:57.705Z,986.79
2023-02-17T11:39:26.120Z,986.74
2023-02-17T11:44:58.017Z,986.48
2023-02-17T11:50:42.821Z,986.57
2023-02-17T11:56:01.037Z,986.81
2023-02-17T12:01:32.895Z,986.78
2023-02-17T12:07:04.537Z,986.81
2023-02-17T12:12:36.461Z,986.81
2023-02-17T12:18:12.346Z,986.84
2023-02-17T12:23:44.149Z,986.85
2023-02-17T12:29:16.053Z,986.76
2023-02-17T12:34:47.455Z,986.73
2023-02-17T12:40:19.545Z,986.91
2023-02-17T12:45:50.974Z,986.79
2023-02-17T12:51:23.394Z,986.72
2023-02-17T12:56:54.988Z,987.06
2023-02-17T13:02:26.515Z,986.69
2023-02-17T13:07:58.328Z,986.72
2023-02-17T13:13:30.080Z,986.79
2023-02-17T13:19:05.978Z,987.12
2023-02-17T13:24:37.593Z,987.08
2023-02-17T13:30:09.724Z,987.23
2023-02-17T13:35:41.160Z,987.59
2023-02-17T13:41:12.950Z,987.52
2023-02-17T13:46:44.697Z,987.63
2023-02-17T13:52:16.648Z,987.73
2023-02-17T13:57:48.219Z,987.41
2023-02-17T14:03:20.033Z,986.98
2023-02-17T14:08:51.742Z,986.76
2023-02-17T14:14:23.200Z,987.3
2023-02-17T14:20:01.730Z,987.65
2023-02-17T14:25:33.116Z,987.11
2023-02-17T14:31:06.681Z,987.4
2023-02-17T14:36:36.721Z,987.2
2023-02-17T14:42:08.604Z,986.66
2023-02-17T14:47:39.945Z,986.38
2023-02-17T14:53:12.164Z,986.75
2023-02-17T14:58:43.519Z,986.7
2023-02-17T15:04:15.079Z,987.06
2023-02-17T15:09:46.888Z,986.33
2023-02-17T15:15:18.852Z,986.11
2023-02-17T15:20:54.823Z,985.98
2023-02-17T15:26:26.425Z,985.54
2023-02-17T15:31:58.696Z,985.55
2023-02-17T15:37:30.173Z,985.69
2023-02-17T15:43:01.777Z,985.76
2023-02-17T15:48:33.327Z,985.27
2023-02-17T15:54:05.214Z,985.17
2023-02-17T15:59:37.051Z,985.06
2023-02-17T16:05:08.525Z,984.87
2023-02-17T16:10:40.322Z,984.76
2023-02-17T16:16:12.332Z,984.68
2023-02-17T16:21:48.440Z,984.37
2023-02-17T16:27:19.961Z,984.97
2023-02-17T16:32:52.593Z,984.64
2023-02-17T16:38:24.252Z,984.71
2023-02-17T16:43:55.135Z,985.05
2023-02-17T16:49:27.200Z,984.97
2023-02-17T16:54:58.637Z,985.61
2023-02-17T17:00:30.227Z,985.39
2023-02-17T17:06:01.910Z,985.47
2023-02-17T17:11:33.710Z,985.51
2023-02-17T17:17:05.492Z,985.51
2023-02-17T17:22:41.575Z,985.74
2023-02-17T17:28:13.233Z,985.61
2023-02-17T17:33:45.042Z,985.58
2023-02-17T17:39:16.601Z,985.57
2023-02-17T17:44:48.348Z,985.42
2023-02-17T17:50:20.209Z,985.47
2023-02-17T17:55:52.026Z,985.5
2023-02-17T18:01:23.891Z,985.75
2023-02-17T18:06:55.541Z,986.22
2023-02-17T18:12:27.488Z,986.3
2023-02-17T18:17:59.100Z,986.24
2023-02-17T18:23:37.210Z,987.17
2023-02-17T18:29:09.236Z,987.32
2023-02-17T18:34:40.634Z,986.95
2023-02-17T18:40:12.486Z,987.28
2023-02-17T18:45:44.110Z,987.95
2023-02-17T18:51:16.167Z,987.99
2023-02-17T18:56:47.695Z,987.02
2023-02-17T19:02:19.628Z,987.22
2023-02-17T19:07:51.375Z,987.22
2023-02-17T19:13:24.122Z,986.67
2023-02-17T19:18:55.561Z,987.02
2023-02-17T19:24:31.968Z,987.01
2023-02-17T19:30:03.641Z,987.3
2023-02-17T19:35:35.202Z,987.34
2023-02-17T19:41:07.399Z,987.25
2023-02-17T19:46:38.883Z,986.8
2023-02-17T19:52:10.226Z,986.48
2023-02-17T19:57:42.377Z,987.17
2023-02-17T20:03:13.906Z,987.56
2023-02-17T20:08:45.494Z,987.18
2023-02-17T20:14:17.306Z,987.36
2023-02-17T20:19:49.050Z,987.56
2023-02-17T20:25:25.203Z,987.67
2023-02-17T20:30:56.895Z,987.88
2023-02-17T20:36:28.562Z,987.19
2023-02-17T20:42:01.710Z,987.56
2023-02-17T20:47:32.461Z,987.37
2023-02-17T20:53:03.827Z,987.47
2023-02-17T20:58:35.486Z,987.39
2023-02-17T21:04:07.574Z,987.7
2023-02-17T21:09:39.226Z,987.76
2023-02-17T21:15:10.946Z,987.7
2023-02-17T21:20:42.350Z,987.76
2023-02-17T21:26:18.608Z,987.76
2023-02-17T21:31:50.566Z,987.77
2023-02-17T21:37:22.299Z,988.0
2023-02-17T21:42:54.352Z,988.3
2023-02-17T21:48:25.535Z,988.01
2023-02-17T21:53:57.334Z,988.14
2023-02-17T21:59:29.086Z,988.34
2023-02-17T22:05:00.769Z,988.22
2023-02-17T22:10:32.708Z,988.44
2023-02-17T22:16:04.051Z,988.39
2023-02-17T22:21:36.097Z,988.41
2023-02-17T22:27:14.194Z,988.37
2023-02-17T22:32:45.500Z,988.46
2023-02-17T22:38:17.278Z,988.79
2023-02-17T22:43:48.997Z,988.67
2023-02-17T22:49:21.047Z,988.54
2023-02-17T22:54:52.562Z,988.47
2023-02-17T23:00:24.082Z,988.7
2023-02-17T23:05:55.929Z,988.59
2023-02-17T23:11:27.587Z,988.56
2023-02-17T23:16:59.541Z,988.7
2023-02-17T23:22:31.165Z,988.83
2023-02-17T23:28:07.387Z,988.64
2023-02-17T23:33:39.349Z,988.7
2023-02-17T23:39:10.753Z,988.15
2023-02-17T23:44:42.961Z,988.62
2023-02-17T23:50:17.439Z,988.76
2023-02-17T23:55:46.162Z,988.52
